Time;durP1;ratioP1;P1;durP2;ratioP2;P2;SDS_P1;SDS_P2;PMS_P1;PMS_P2;Temp;Humidity;BMP_temperature;BMP_pressure;BME280_temperature;BME280_humidity;BME280_pressure;Samples;Min_cycle;Max_cycle;Signal;HPM_P1;HPM_P2
2023/06/27 00:01:12;;;;;;;9.90;3.60;;;16.80;99.90;;;;;;5009360;28;20448;-94
2023/06/27 00:03:40;;;;;;;9.20;3.87;;;16.70;99.90;;;;;;5008425;28;20465;-93
2023/06/27 00:06:10;;;;;;;8.10;3.60;;;16.70;99.90;;;;;;5008485;28;20488;-94
2023/06/27 00:08:40;;;;;;;9.83;3.70;;;16.70;99.90;;;;;;5009073;28;20435;-93
2023/06/27 00:11:12;;;;;;;12.07;3.57;;;16.70;99.90;;;;;;5010568;28;20484;-94
2023/06/27 00:13:41;;;;;;;11.43;3.87;;;16.70;99.90;;;;;;5008961;28;20451;-94
2023/06/27 00:16:13;;;;;;;11.60;3.90;;;16.60;99.90;;;;;;5008106;28;20536;-94
2023/06/27 00:18:47;;;;;;;11.90;3.80;;;16.60;99.90;;;;;;5008586;28;20514;-94
2023/06/27 00:21:18;;;;;;;8.33;3.70;;;16.60;99.90;;;;;;5008064;28;20930;-94
2023/06/27 00:23:48;;;;;;;12.83;4.50;;;16.60;99.90;;;;;;5008056;28;20467;-94
2023/06/27 00:26:17;;;;;;;8.37;3.77;;;16.60;99.90;;;;;;5007466;28;20427;-94
2023/06/27 00:28:45;;;;;;;9.90;4.00;;;16.60;99.90;;;;;;5017031;28;20441;-94
2023/06/27 00:31:14;;;;;;;8.63;3.50;;;16.50;99.90;;;;;;5020195;28;20479;-93
2023/06/27 00:33:42;;;;;;;10.00;4.40;;;16.50;99.90;;;;;;5019045;28;20455;-93
2023/06/27 00:36:10;;;;;;;10.37;4.00;;;16.50;99.90;;;;;;5019296;28;20471;-94
2023/06/27 00:38:40;;;;;;;9.83;3.97;;;16.50;99.90;;;;;;5008557;28;20448;-94
2023/06/27 00:41:09;;;;;;;8.30;3.60;;;16.40;99.90;;;;;;5006906;28;20457;-94
2023/06/27 00:43:37;;;;;;;8.00;3.60;;;16.40;99.90;;;;;;5007248;28;20493;-94
2023/06/27 00:46:08;;;;;;;9.07;3.90;;;16.40;99.90;;;;;;5007547;28;20453;-93
2023/06/27 00:48:37;;;;;;;13.83;3.70;;;16.40;99.90;;;;;;5007000;28;20541;-94
2023/06/27 00:51:09;;;;;;;8.60;3.80;;;16.30;99.90;;;;;;5007718;28;20430;-94
2023/06/27 00:53:37;;;;;;;10.80;3.60;;;16.30;99.90;;;;;;5004611;28;20470;-94
2023/06/27 00:56:08;;;;;;;10.27;3.83;;;16.40;99.90;;;;;;5007484;28;20217;-94
2023/06/27 00:58:37;;;;;;;8.40;4.03;;;16.40;99.90;;;;;;5008832;28;20412;-93
2023/06/27 01:01:05;;;;;;;11.30;4.20;;;16.30;99.90;;;;;;5007270;28;20438;-94
2023/06/27 01:03:34;;;;;;;8.30;3.30;;;16.30;99.90;;;;;;5006234;28;20496;-94
2023/06/27 01:06:07;;;;;;;7.87;3.50;;;16.30;99.90;;;;;;5007304;28;20470;-93
2023/06/27 01:08:42;;;;;;;10.30;3.70;;;16.20;99.90;;;;;;5007686;28;20452;-94
2023/06/27 01:11:16;;;;;;;9.33;3.90;;;16.20;99.90;;;;;;5008194;28;20418;-94
2023/06/27 01:13:50;;;;;;;8.50;4.37;;;16.20;99.90;;;;;;5007623;28;20471;-93
2023/06/27 01:16:20;;;;;;;9.57;4.40;;;16.20;99.90;;;;;;5008025;28;20461;-93
2023/06/27 01:18:49;;;;;;;8.13;3.80;;;16.10;99.90;;;;;;5006651;28;20533;-94
2023/06/27 01:21:20;;;;;;;8.57;3.60;;;16.20;99.90;;;;;;5008583;28;20456;-94
2023/06/27 01:23:54;;;;;;;12.70;3.80;;;16.10;99.90;;;;;;5002490;28;20469;-94
2023/06/27 01:26:23;;;;;;;9.47;3.67;;;16.10;99.90;;;;;;5001475;28;20544;-94
2023/06/27 01:28:53;;;;;;;6.53;3.10;;;16.00;99.90;;;;;;5004769;28;20453;-93
2023/06/27 01:31:27;;;;;;;8.83;4.00;;;16.00;99.90;;;;;;5007645;28;20448;-93
2023/06/27 01:34:03;;;;;;;9.10;3.93;;;16.00;99.90;;;;;;5003564;28;20525;-94
2023/06/27 01:36:38;;;;;;;10.60;4.10;;;16.00;99.90;;;;;;5018578;28;20484;-93
2023/06/27 01:39:11;;;;;;;9.90;4.87;;;16.00;99.90;;;;;;5004223;28;20429;-93
2023/06/27 01:41:44;;;;;;;7.70;3.77;;;15.90;99.90;;;;;;5006745;28;20416;-94
2023/06/27 01:44:15;;;;;;;8.00;3.77;;;15.90;99.90;;;;;;5005116;28;20483;-94
2023/06/27 01:46:45;;;;;;;8.40;3.80;;;15.90;99.90;;;;;;5003544;28;20428;-94
2023/06/27 01:49:14;;;;;;;6.70;3.70;;;15.90;99.90;;;;;;5005212;28;20423;-94
2023/06/27 01:51:43;;;;;;;6.50;3.67;;;15.90;99.90;;;;;;5004181;28;20783;-94
2023/06/27 01:54:13;;;;;;;7.87;3.40;;;15.90;99.90;;;;;;5001587;28;20455;-94
2023/06/27 01:56:41;;;;;;;12.40;4.67;;;15.90;99.90;;;;;;5000617;28;20479;-94
2023/06/27 01:59:09;;;;;;;9.67;3.87;;;15.80;99.90;;;;;;5006031;28;20448;-94
2023/06/27 02:01:37;;;;;;;10.00;3.93;;;15.80;99.90;;;;;;5003304;28;20427;-94
2023/06/27 02:04:06;;;;;;;8.63;3.60;;;15.80;99.90;;;;;;5003386;28;20515;-94
2023/06/27 02:06:36;;;;;;;7.47;3.60;;;15.80;99.90;;;;;;5005771;28;20464;-94
2023/06/27 02:09:05;;;;;;;7.80;4.20;;;15.80;99.90;;;;;;5003991;28;20524;-94
2023/06/27 02:11:34;;;;;;;8.77;4.07;;;15.80;99.90;;;;;;5003589;28;20493;-93
2023/06/27 02:14:03;;;;;;;7.03;3.43;;;15.70;99.90;;;;;;5002648;28;20447;-94
2023/06/27 02:16:31;;;;;;;7.57;3.20;;;15.70;99.90;;;;;;5001457;28;20960;-94
2023/06/27 02:18:59;;;;;;;8.10;4.00;;;15.70;99.90;;;;;;5002896;28;20506;-93
2023/06/27 02:21:28;;;;;;;8.30;4.43;;;15.80;99.90;;;;;;5008946;28;20551;-94
2023/06/27 02:23:56;;;;;;;8.37;3.33;;;15.60;99.90;;;;;;5004283;28;20470;-94
2023/06/27 02:26:24;;;;;;;7.10;3.83;;;15.60;99.90;;;;;;5005033;28;20523;-94
2023/06/27 02:28:54;;;;;;;8.80;3.60;;;15.60;99.90;;;;;;5005827;28;20511;-94
2023/06/27 02:31:22;;;;;;;8.30;3.83;;;15.60;99.90;;;;;;5004162;28;20484;-94
2023/06/27 02:33:51;;;;;;;11.10;3.77;;;15.50;99.90;;;;;;5002861;28;20538;-94
2023/06/27 02:36:19;;;;;;;7.40;3.40;;;15.50;99.90;;;;;;5002566;28;20889;-94
2023/06/27 02:38:47;;;;;;;8.90;4.03;;;15.50;99.90;;;;;;5003453;28;20451;-94
2023/06/27 02:41:17;;;;;;;8.73;4.10;;;15.50;99.90;;;;;;5013623;28;20431;-94
2023/06/27 02:43:45;;;;;;;6.23;3.57;;;15.50;99.90;;;;;;5015865;28;20447;-93
2023/06/27 02:46:15;;;;;;;7.37;4.13;;;15.40;99.90;;;;;;5017953;28;20429;-93
2023/06/27 02:48:43;;;;;;;8.73;4.10;;;15.50;99.90;;;;;;5017991;28;20438;-93
2023/06/27 02:51:12;;;;;;;6.30;3.20;;;15.50;99.90;;;;;;5006845;28;20449;-94
2023/06/27 02:53:40;;;;;;;7.00;3.93;;;15.40;99.90;;;;;;5009935;28;20459;-94
2023/06/27 02:56:08;;;;;;;7.33;3.43;;;15.40;99.90;;;;;;5006264;28;20527;-94
2023/06/27 02:58:39;;;;;;;6.53;3.60;;;15.40;99.90;;;;;;5004958;28;20423;-94
2023/06/27 03:01:08;;;;;;;6.80;3.60;;;15.30;99.90;;;;;;5004042;28;20503;-94
2023/06/27 03:03:43;;;;;;;5.30;3.57;;;15.30;99.90;;;;;;5008110;28;20473;-94
2023/06/27 03:06:13;;;;;;;9.70;4.20;;;15.30;99.90;;;;;;5005380;28;20439;-94
2023/06/27 03:08:41;;;;;;;8.50;3.90;;;15.30;99.90;;;;;;5001588;28;20872;-94
2023/06/27 03:11:13;;;;;;;6.53;4.27;;;15.20;99.90;;;;;;5001387;28;20478;-94
2023/06/27 03:13:41;;;;;;;13.83;4.90;;;15.20;99.90;;;;;;5001631;28;20468;-94
2023/06/27 03:16:10;;;;;;;6.67;4.47;;;15.20;99.90;;;;;;5001122;28;20560;-94
2023/06/27 03:18:41;;;;;;;10.33;4.30;;;15.20;99.90;;;;;;5001701;28;20427;-94
2023/06/27 03:21:11;;;;;;;10.53;4.47;;;15.20;99.90;;;;;;5001244;28;20439;-94
2023/06/27 03:23:39;;;;;;;9.27;4.63;;;15.20;99.90;;;;;;5000460;28;20477;-94
2023/06/27 03:26:08;;;;;;;8.77;4.30;;;15.10;99.90;;;;;;4999965;28;20811;-94
2023/06/27 03:28:36;;;;;;;9.90;4.37;;;15.30;99.90;;;;;;5001923;28;20453;-94
2023/06/27 03:31:05;;;;;;;8.30;4.40;;;15.10;99.90;;;;;;5000929;28;20453;-94
2023/06/27 03:33:34;;;;;;;7.67;4.13;;;15.10;99.90;;;;;;5000492;28;20500;-94
2023/06/27 03:36:05;;;;;;;8.60;4.37;;;15.10;99.90;;;;;;5002062;28;20452;-94
2023/06/27 03:38:35;;;;;;;8.57;4.40;;;15.00;99.90;;;;;;5004800;28;20508;-94
2023/06/27 03:41:03;;;;;;;10.57;4.37;;;15.00;99.90;;;;;;5004456;28;20427;-93
2023/06/27 03:43:31;;;;;;;9.90;4.60;;;15.00;99.90;;;;;;5006824;28;20446;-94
2023/06/27 03:46:00;;;;;;;8.90;4.03;;;15.00;99.90;;;;;;5018306;28;20464;-93
2023/06/27 03:48:28;;;;;;;7.83;4.73;;;15.00;99.90;;;;;;5018499;28;20399;-94
2023/06/27 03:50:58;;;;;;;8.20;4.80;;;15.00;99.90;;;;;;5018247;28;20457;-93
2023/06/27 03:53:27;;;;;;;6.67;3.83;;;14.90;99.90;;;;;;5018158;28;20453;-93
2023/06/27 03:55:56;;;;;;;13.90;5.13;;;14.90;99.90;;;;;;5018227;28;20399;-93
2023/06/27 03:58:25;;;;;;;10.00;5.03;;;14.90;99.90;;;;;;5018174;28;20460;-94
2023/06/27 04:00:54;;;;;;;10.40;5.00;;;15.00;99.90;;;;;;5019635;28;20461;-94
2023/06/27 04:03:22;;;;;;;8.77;5.00;;;15.00;99.90;;;;;;5010570;28;20469;-94
2023/06/27 04:05:52;;;;;;;9.67;4.73;;;14.90;99.90;;;;;;5006356;28;20803;-94
2023/06/27 04:08:21;;;;;;;7.77;4.63;;;14.80;99.90;;;;;;5003650;28;20416;-94
2023/06/27 04:10:55;;;;;;;7.80;4.80;;;15.00;99.90;;;;;;5006587;28;20456;-94
2023/06/27 04:13:23;;;;;;;7.77;4.07;;;15.00;99.90;;;;;;5006619;28;20476;-94
2023/06/27 04:15:52;;;;;;;7.37;4.60;;;14.90;99.90;;;;;;5007095;28;20634;-94
2023/06/27 04:18:22;;;;;;;8.00;4.67;;;14.90;99.90;;;;;;5005500;28;20665;-94
2023/06/27 04:20:50;;;;;;;7.60;4.37;;;15.00;99.90;;;;;;5006060;28;20535;-94
2023/06/27 04:23:19;;;;;;;12.23;5.30;;;15.00;99.90;;;;;;5008028;28;20447;-94
2023/06/27 04:26:04;;;;;;;7.20;5.10;;;14.90;99.90;;;;;;5009456;28;20449;-94
2023/06/27 04:28:33;;;;;;;7.80;4.93;;;14.90;99.90;;;;;;5007087;28;20449;-94
2023/06/27 04:31:02;;;;;;;7.03;4.50;;;14.90;99.90;;;;;;5007948;28;20448;-94
2023/06/27 04:33:31;;;;;;;9.27;5.07;;;14.90;99.90;;;;;;5013896;28;20538;-93
2023/06/27 04:36:01;;;;;;;8.47;4.87;;;15.00;99.90;;;;;;5015843;28;20456;-93
2023/06/27 04:38:30;;;;;;;8.67;4.70;;;15.00;99.90;;;;;;5018792;28;20475;-93
2023/06/27 04:40:59;;;;;;;6.60;4.77;;;14.90;99.90;;;;;;5018195;28;20415;-93
2023/06/27 04:43:30;;;;;;;6.87;4.50;;;14.90;99.90;;;;;;5011544;28;20567;-94
2023/06/27 04:46:06;;;;;;;7.97;4.43;;;15.00;99.90;;;;;;5007144;28;20449;-94
2023/06/27 04:48:35;;;;;;;8.33;5.40;;;15.10;99.90;;;;;;5005045;28;20476;-94
2023/06/27 04:51:04;;;;;;;9.00;4.53;;;15.20;99.90;;;;;;5001743;28;20511;-94
2023/06/27 04:53:42;;;;;;;10.40;4.80;;;15.10;99.90;;;;;;5003404;28;20473;-94
2023/06/27 04:56:11;;;;;;;9.30;5.13;;;15.30;99.90;;;;;;5017287;28;20431;-94
2023/06/27 04:58:42;;;;;;;8.60;4.40;;;15.10;99.90;;;;;;5014037;28;20538;-93
2023/06/27 05:01:10;;;;;;;8.87;4.43;;;15.20;99.90;;;;;;5004848;28;20452;-93
2023/06/27 05:04:04;;;;;;;10.00;4.80;;;15.40;99.90;;;;;;5009071;28;20452;-93
2023/06/27 05:06:34;;;;;;;12.40;5.00;;;15.20;99.90;;;;;;5004331;28;20444;-92
2023/06/27 05:09:03;;;;;;;9.63;5.20;;;15.20;99.90;;;;;;5003706;28;20412;-93
2023/06/27 05:11:32;;;;;;;8.40;5.10;;;15.30;99.90;;;;;;5002936;28;20507;-93
2023/06/27 05:14:05;;;;;;;8.20;5.50;;;15.40;99.90;;;;;;5003855;28;20484;-92
2023/06/27 05:16:34;;;;;;;8.20;4.80;;;15.40;99.90;;;;;;5003932;28;20809;-92
2023/06/27 05:19:02;;;;;;;8.63;4.90;;;15.40;99.90;;;;;;5001737;28;20471;-93
2023/06/27 05:21:38;;;;;;;7.63;4.57;;;15.40;99.90;;;;;;5001724;28;20453;-93
2023/06/27 05:24:07;;;;;;;11.07;5.20;;;15.50;99.90;;;;;;4999035;28;20522;-93
2023/06/27 05:26:35;;;;;;;8.80;4.53;;;15.60;99.90;;;;;;4997188;28;20540;-93
2023/06/27 05:29:05;;;;;;;8.77;4.23;;;15.80;99.90;;;;;;5005226;28;20427;-93
2023/06/27 05:31:33;;;;;;;9.03;4.90;;;15.70;99.90;;;;;;5002865;28;20448;-92
2023/06/27 05:34:02;;;;;;;8.13;4.17;;;15.70;99.90;;;;;;5005707;28;20451;-93
2023/06/27 05:36:30;;;;;;;7.47;4.20;;;15.70;99.90;;;;;;5012666;28;20462;-93
2023/06/27 05:38:59;;;;;;;8.60;4.77;;;15.90;99.90;;;;;;5004007;28;21013;-91
2023/06/27 05:41:33;;;;;;;9.33;4.40;;;16.00;99.90;;;;;;4995395;28;20511;-90
2023/06/27 05:44:06;;;;;;;10.80;4.97;;;16.10;99.90;;;;;;5007254;28;20451;-93
2023/06/27 05:46:38;;;;;;;7.23;4.57;;;16.30;99.90;;;;;;5012064;28;20423;-93
2023/06/27 05:49:08;;;;;;;6.60;4.17;;;16.40;99.90;;;;;;5012215;28;20452;-93
2023/06/27 05:51:36;;;;;;;8.20;5.30;;;16.60;99.90;;;;;;5016431;28;20423;-94
2023/06/27 05:54:07;;;;;;;12.23;4.47;;;16.80;99.90;;;;;;5011130;28;20473;-95
2023/06/27 05:56:37;;;;;;;8.60;4.40;;;17.00;99.90;;;;;;5012486;28;20419;-95
2023/06/27 05:59:10;;;;;;;7.13;3.83;;;17.20;99.90;;;;;;5011002;28;20505;-93
2023/06/27 06:01:40;;;;;;;8.07;3.70;;;17.40;99.90;;;;;;5012754;28;20512;-95
2023/06/27 06:04:10;;;;;;;8.33;4.20;;;17.60;99.90;;;;;;5010608;28;20552;-95
2023/06/27 06:06:38;;;;;;;10.50;3.80;;;17.80;99.90;;;;;;5008734;28;20462;-95
2023/06/27 06:09:09;;;;;;;9.13;4.00;;;18.00;99.90;;;;;;5004732;28;20448;-92
2023/06/27 06:11:38;;;;;;;8.17;3.43;;;18.20;99.90;;;;;;5010285;28;20532;-94
2023/06/27 06:14:11;;;;;;;7.67;3.77;;;18.40;99.90;;;;;;5011018;28;20473;-95
2023/06/27 06:16:41;;;;;;;7.93;4.00;;;18.50;99.90;;;;;;5009275;28;20462;-95
2023/06/27 06:19:11;;;;;;;8.37;3.70;;;18.70;99.90;;;;;;5010091;28;20477;-95
2023/06/27 06:21:42;;;;;;;6.10;3.30;;;18.80;99.90;;;;;;5012037;28;20448;-95
2023/06/27 06:24:15;;;;;;;9.33;3.40;;;19.00;99.90;;;;;;5011078;28;20479;-93
2023/06/27 06:26:44;;;;;;;6.70;3.10;;;19.10;99.90;;;;;;5010091;28;20440;-93
2023/06/27 06:29:14;;;;;;;8.47;3.10;;;19.20;99.90;;;;;;5011424;28;20444;-93
2023/06/27 06:31:42;;;;;;;7.30;3.43;;;19.40;99.90;;;;;;5009524;28;20437;-93
2023/06/27 06:34:11;;;;;;;7.23;3.30;;;19.50;99.90;;;;;;5016698;28;20505;-93
2023/06/27 06:36:40;;;;;;;5.47;2.93;;;19.70;99.90;;;;;;5012988;28;20452;-93
2023/06/27 06:39:08;;;;;;;8.63;3.33;;;19.80;99.90;;;;;;5011056;28;20476;-93
2023/06/27 06:41:37;;;;;;;6.50;2.93;;;19.90;99.90;;;;;;5010042;28;20795;-92
2023/06/27 06:44:14;;;;;;;8.30;3.07;;;19.90;99.90;;;;;;5011279;28;20476;-93
2023/06/27 06:46:43;;;;;;;7.03;3.00;;;20.00;99.90;;;;;;5010915;28;20448;-94
2023/06/27 06:49:12;;;;;;;6.57;3.30;;;20.10;99.90;;;;;;5010720;28;20452;-94
2023/06/27 06:51:42;;;;;;;12.43;3.47;;;20.10;99.90;;;;;;5009020;28;20452;-94
2023/06/27 06:54:11;;;;;;;7.17;2.93;;;20.20;99.90;;;;;;5012004;28;20483;-94
2023/06/27 06:56:39;;;;;;;5.90;3.20;;;20.30;99.90;;;;;;5009202;28;20441;-93
2023/06/27 06:59:14;;;;;;;7.50;3.03;;;20.40;99.90;;;;;;5009739;28;20453;-93
2023/06/27 07:01:48;;;;;;;5.50;2.87;;;20.50;99.90;;;;;;5013582;28;20439;-94
2023/06/27 07:04:20;;;;;;;8.70;2.80;;;20.50;99.90;;;;;;5017061;28;20452;-94
2023/06/27 07:06:49;;;;;;;7.03;3.57;;;20.60;99.90;;;;;;5016640;28;20453;-94
2023/06/27 07:09:29;;;;;;;5.77;2.40;;;20.70;99.90;;;;;;5017428;28;20429;-93
2023/06/27 07:12:01;;;;;;;7.23;2.93;;;20.80;99.90;;;;;;5021071;23;20493;-79
2023/06/27 07:14:29;;;;;;;7.03;2.73;;;20.80;99.90;;;;;;4977341;28;20891;-78
2023/06/27 07:16:58;;;;;;;7.60;3.17;;;20.80;99.90;;;;;;4993683;28;20457;-79
2023/06/27 07:19:27;;;;;;;6.40;2.83;;;20.90;99.90;;;;;;4978880;28;20501;-80
2023/06/27 07:21:55;;;;;;;7.57;2.80;;;20.90;99.90;;;;;;4980415;28;20452;-79
2023/06/27 07:24:23;;;;;;;5.70;2.37;;;21.00;99.90;;;;;;4977140;28;20454;-78
2023/06/27 07:26:52;;;;;;;5.97;2.50;;;21.10;99.90;;;;;;4978681;28;20477;-79
2023/06/27 07:29:21;;;;;;;7.80;2.47;;;21.10;99.90;;;;;;4979128;28;20525;-78
2023/06/27 07:31:50;;;;;;;8.57;2.13;;;21.20;99.90;;;;;;4979433;28;20504;-79
2023/06/27 07:34:20;;;;;;;6.50;2.13;;;21.20;99.90;;;;;;4977680;28;20942;-79
2023/06/27 07:36:48;;;;;;;5.10;2.33;;;21.30;99.90;;;;;;4982571;28;20532;-78
2023/06/27 07:39:16;;;;;;;9.57;3.00;;;21.30;99.90;;;;;;4981155;28;20477;-78
2023/06/27 07:41:44;;;;;;;6.30;2.40;;;21.30;99.90;;;;;;4982845;28;20544;-79
2023/06/27 07:44:13;;;;;;;5.47;2.33;;;21.40;99.90;;;;;;4981184;28;20475;-79
2023/06/27 07:46:41;;;;;;;5.90;1.90;;;21.40;99.90;;;;;;4982083;28;20791;-79
2023/06/27 07:49:09;;;;;;;6.93;1.80;;;21.40;99.80;;;;;;4981969;28;20501;-79
2023/06/27 07:51:40;;;;;;;7.37;1.93;;;21.50;99.60;;;;;;4981988;28;20465;-79
2023/06/27 07:54:09;;;;;;;4.20;1.70;;;21.50;99.40;;;;;;4981653;28;20840;-79
2023/06/27 07:56:37;;;;;;;5.80;1.60;;;21.60;99.20;;;;;;4981356;28;20472;-79
2023/06/27 07:59:07;;;;;;;6.60;1.80;;;21.60;99.00;;;;;;4983709;28;20470;-78
2023/06/27 08:01:36;;;;;;;6.90;2.10;;;21.70;98.70;;;;;;4982255;28;20485;-79
2023/06/27 08:04:04;;;;;;;7.13;1.80;;;21.70;98.40;;;;;;4982523;28;20457;-79
2023/06/27 08:06:33;;;;;;;4.73;1.50;;;21.80;98.40;;;;;;4981040;28;20476;-78
2023/06/27 08:09:02;;;;;;;8.00;1.87;;;21.70;98.20;;;;;;4981832;28;20545;-79
2023/06/27 08:11:30;;;;;;;6.20;1.63;;;21.70;98.20;;;;;;4982948;28;20465;-79
2023/06/27 08:13:59;;;;;;;5.97;1.50;;;21.80;98.20;;;;;;4983468;28;20454;-80
2023/06/27 08:16:27;;;;;;;4.30;1.57;;;21.80;98.10;;;;;;4983102;28;20910;-80
2023/06/27 08:18:55;;;;;;;4.60;1.60;;;21.90;98.10;;;;;;4981691;28;20485;-79
2023/06/27 08:21:26;;;;;;;7.10;1.77;;;22.00;98.00;;;;;;4983098;28;20457;-79
2023/06/27 08:23:54;;;;;;;6.80;1.93;;;22.00;97.50;;;;;;4983396;28;20955;-79
2023/06/27 08:26:24;;;;;;;5.13;1.80;;;22.00;97.40;;;;;;4981949;28;20437;-79
2023/06/27 08:28:52;;;;;;;4.93;1.40;;;22.00;97.50;;;;;;4982111;28;20548;-80
2023/06/27 08:31:20;;;;;;;6.30;2.10;;;22.00;97.20;;;;;;4982400;28;20442;-79
2023/06/27 08:33:48;;;;;;;6.50;1.60;;;22.00;97.10;;;;;;4980864;28;20492;-79
2023/06/27 08:36:17;;;;;;;5.63;2.20;;;22.00;96.90;;;;;;4979998;28;20541;-79
2023/06/27 08:38:45;;;;;;;4.73;1.67;;;22.10;96.90;;;;;;4978132;28;20505;-79
2023/06/27 08:41:16;;;;;;;5.30;1.60;;;22.10;96.90;;;;;;4980409;28;20450;-79
2023/06/27 08:43:45;;;;;;;6.17;2.20;;;22.10;96.80;;;;;;4981288;28;20460;-79
2023/06/27 08:46:14;;;;;;;6.20;1.67;;;22.20;96.70;;;;;;4980321;28;20814;-79
2023/06/27 08:48:44;;;;;;;4.50;1.33;;;22.30;96.80;;;;;;4980087;28;20828;-79
2023/06/27 08:51:13;;;;;;;3.63;1.30;;;22.30;96.80;;;;;;4979598;28;20557;-79
2023/06/27 08:53:44;;;;;;;5.67;1.43;;;22.30;96.80;;;;;;4980210;28;20478;-80
2023/06/27 08:56:15;;;;;;;5.00;1.77;;;22.30;96.70;;;;;;4979820;28;20460;-78
2023/06/27 08:58:50;;;;;;;5.60;2.53;;;22.30;96.40;;;;;;4980333;28;20906;-78
2023/06/27 09:01:18;;;;;;;5.77;1.60;;;22.20;96.30;;;;;;4978596;28;20549;-79
2023/06/27 09:03:46;;;;;;;5.37;1.60;;;22.10;96.30;;;;;;4979127;28;20446;-79
2023/06/27 09:06:16;;;;;;;7.40;2.20;;;22.00;96.20;;;;;;4979490;28;20464;-77
2023/06/27 09:08:44;;;;;;;6.23;1.70;;;21.90;96.10;;;;;;4980623;28;20454;-78
2023/06/27 09:11:13;;;;;;;5.97;1.90;;;21.90;96.00;;;;;;4979766;28;20804;-79
2023/06/27 09:13:41;;;;;;;7.40;1.70;;;21.80;96.10;;;;;;4978841;28;20509;-79
2023/06/27 09:16:10;;;;;;;6.07;2.10;;;21.70;96.30;;;;;;4980100;28;20446;-80
2023/06/27 09:18:39;;;;;;;4.70;1.47;;;21.60;96.40;;;;;;4978772;28;20485;-79
2023/06/27 09:21:07;;;;;;;4.60;1.70;;;21.50;96.50;;;;;;4980625;28;20473;-80
2023/06/27 09:23:36;;;;;;;4.97;1.63;;;21.50;96.60;;;;;;4980003;28;20434;-80
2023/06/27 09:26:08;;;;;;;7.90;1.60;;;21.60;96.70;;;;;;4977855;28;20575;-81
2023/06/27 09:28:47;;;;;;;5.20;1.20;;;21.60;96.80;;;;;;4979235;28;20469;-80
2023/06/27 09:31:19;;;;;;;5.00;0.90;;;21.60;96.20;;;;;;4979355;28;20540;-80
2023/06/27 09:33:48;;;;;;;4.80;1.43;;;21.50;95.80;;;;;;4978430;28;20453;-80
2023/06/27 09:36:41;;;;;;;4.30;1.50;;;21.40;95.60;;;;;;4978756;28;20438;-79
2023/06/27 09:39:14;;;;;;;3.90;1.17;;;21.30;95.70;;;;;;4977132;28;20528;-79
2023/06/27 09:41:45;;;;;;;4.63;1.20;;;21.30;95.80;;;;;;4977925;28;20973;-79
2023/06/27 09:44:15;;;;;;;10.40;1.60;;;21.30;95.80;;;;;;4977843;28;20442;-79
2023/06/27 09:46:47;;;;;;;5.10;2.03;;;21.40;95.90;;;;;;4978006;28;20863;-80
2023/06/27 09:49:16;;;;;;;5.53;1.57;;;21.40;95.90;;;;;;4979701;28;20468;-79
2023/06/27 09:51:46;;;;;;;5.30;1.57;;;21.50;96.00;;;;;;4978085;28;20450;-79
2023/06/27 09:54:16;;;;;;;4.10;1.50;;;21.60;96.10;;;;;;4978082;28;20460;-80
2023/06/27 09:56:49;;;;;;;4.40;1.30;;;21.70;96.20;;;;;;4979609;28;20422;-79
2023/06/27 09:59:19;;;;;;;5.50;1.97;;;21.80;96.40;;;;;;4992003;28;20466;-80
2023/06/27 10:01:54;;;;;;;5.50;1.50;;;21.90;96.50;;;;;;4982472;28;20908;-79
2023/06/27 10:04:23;;;;;;;5.60;1.83;;;22.00;96.50;;;;;;4979685;28;20442;-79
2023/06/27 10:07:08;;;;;;;6.57;2.17;;;22.10;96.50;;;;;;4982379;28;20593;-80
2023/06/27 10:09:38;;;;;;;4.67;1.30;;;22.10;96.50;;;;;;4982577;28;20484;-80
2023/06/27 10:12:08;;;;;;;5.00;1.70;;;22.10;96.50;;;;;;4983177;28;20457;-79
2023/06/27 10:14:36;;;;;;;5.00;1.50;;;22.10;96.50;;;;;;4981812;28;20521;-80
2023/06/27 10:17:06;;;;;;;5.20;1.80;;;22.10;96.60;;;;;;4980929;28;20454;-80
2023/06/27 10:19:37;;;;;;;4.70;2.00;;;22.10;96.80;;;;;;4982708;28;20465;-80
2023/06/27 10:22:12;;;;;;;5.77;1.60;;;22.10;97.00;;;;;;4983103;28;20548;-80
2023/06/27 10:24:41;;;;;;;3.97;1.13;;;22.10;97.20;;;;;;4980861;28;20445;-80
2023/06/27 10:27:13;;;;;;;5.63;1.70;;;22.10;97.20;;;;;;4980870;28;20438;-80
2023/06/27 10:29:44;;;;;;;5.93;2.00;;;22.20;97.30;;;;;;4980252;28;20516;-79
2023/06/27 10:32:16;;;;;;;5.67;1.63;;;22.30;97.20;;;;;;4981549;28;20438;-80
2023/06/27 10:34:45;;;;;;;5.80;1.53;;;22.40;97.20;;;;;;4981828;28;20464;-79
2023/06/27 10:37:24;;;;;;;6.47;1.43;;;22.40;96.90;;;;;;4979448;28;20486;-80
2023/06/27 10:39:56;;;;;;;4.63;1.40;;;22.50;96.60;;;;;;4979083;28;20469;-80
2023/06/27 10:42:29;;;;;;;6.70;1.60;;;22.50;96.40;;;;;;4980618;28;20488;-79
2023/06/27 10:45:06;;;;;;;6.43;1.50;;;22.50;96.30;;;;;;4979754;28;20442;-79
2023/06/27 10:47:38;;;;;;;5.77;1.40;;;22.60;96.30;;;;;;4979757;28;20452;-79
2023/06/27 10:50:10;;;;;;;4.70;1.10;;;22.60;95.90;;;;;;4979865;28;20438;-79
2023/06/27 10:52:39;;;;;;;4.07;1.13;;;22.70;95.50;;;;;;4981061;28;20422;-79
2023/06/27 10:55:24;;;;;;;5.10;1.30;;;22.70;95.10;;;;;;4980396;28;20854;-79
2023/06/27 10:58:02;;;;;;;4.50;1.20;;;22.70;95.00;;;;;;4979211;28;20524;-80
2023/06/27 11:00:32;;;;;;;6.30;1.50;;;22.80;95.00;;;;;;4979746;28;20484;-80
2023/06/27 11:03:05;;;;;;;6.07;1.50;;;22.70;94.80;;;;;;4979334;28;20508;-80
2023/06/27 11:05:40;;;;;;;5.70;1.90;;;22.70;94.80;;;;;;4979389;28;20973;-79
2023/06/27 11:08:11;;;;;;;5.13;1.50;;;22.60;94.80;;;;;;4979822;28;20480;-80
2023/06/27 11:10:50;;;;;;;4.37;1.73;;;22.50;95.00;;;;;;4983010;28;20485;-79
2023/06/27 11:13:22;;;;;;;5.20;1.37;;;22.40;95.10;;;;;;4982981;28;20543;-79
2023/06/27 11:15:53;;;;;;;4.73;1.40;;;22.20;95.20;;;;;;4984606;28;20433;-79
2023/06/27 11:18:26;;;;;;;5.73;1.30;;;22.10;95.40;;;;;;4990220;28;20453;-80
2023/06/27 11:20:55;;;;;;;5.80;1.80;;;22.10;95.70;;;;;;4992575;28;20564;-79
2023/06/27 11:23:25;;;;;;;12.03;1.87;;;22.10;95.80;;;;;;4993881;28;20441;-79
2023/06/27 11:25:54;;;;;;;5.77;2.00;;;22.10;96.00;;;;;;4997571;28;20442;-80
2023/06/27 11:28:24;;;;;;;5.30;1.50;;;22.10;96.10;;;;;;4992072;28;20488;-79
2023/06/27 11:30:58;;;;;;;8.13;1.53;;;22.20;96.20;;;;;;4989577;28;20434;-80
2023/06/27 11:33:28;;;;;;;4.00;1.27;;;22.30;96.10;;;;;;4988263;28;20445;-80
2023/06/27 11:36:00;;;;;;;4.70;1.30;;;22.40;96.00;;;;;;4989239;28;20442;-79
2023/06/27 11:38:29;;;;;;;5.13;1.63;;;22.60;95.80;;;;;;4987089;28;20484;-80
2023/06/27 11:40:58;;;;;;;5.30;1.60;;;22.70;95.90;;;;;;4987497;28;20497;-80
2023/06/27 11:43:27;;;;;;;5.20;1.30;;;22.80;95.60;;;;;;4989514;28;20468;-80
2023/06/27 11:45:57;;;;;;;8.73;1.30;;;22.90;95.00;;;;;;4988086;28;20441;-79
2023/06/27 11:48:25;;;;;;;7.17;1.30;;;23.00;94.50;;;;;;4988453;28;20467;-80
2023/06/27 11:50:58;;;;;;;5.40;1.40;;;23.00;94.10;;;;;;4987654;28;20449;-80
2023/06/27 11:53:28;;;;;;;5.17;1.57;;;23.00;93.80;;;;;;4989660;28;20421;-80
2023/06/27 11:55:57;;;;;;;5.60;1.40;;;22.90;93.60;;;;;;4987359;28;20485;-80
2023/06/27 11:58:30;;;;;;;5.73;1.80;;;22.90;93.60;;;;;;4987691;28;20477;-80
2023/06/27 12:01:01;;;;;;;5.33;1.30;;;22.80;93.50;;;;;;4989359;28;20457;-80
2023/06/27 12:03:33;;;;;;;5.60;1.30;;;22.90;93.50;;;;;;4990278;28;20442;-79
2023/06/27 12:06:02;;;;;;;4.43;1.10;;;22.90;93.40;;;;;;4988561;28;20456;-80
2023/06/27 12:08:32;;;;;;;4.63;1.50;;;22.90;93.10;;;;;;4989221;28;20904;-79
2023/06/27 12:11:02;;;;;;;5.70;1.20;;;22.90;92.90;;;;;;4990109;28;20446;-80
2023/06/27 12:13:33;;;;;;;4.43;1.40;;;22.90;92.80;;;;;;4988116;28;20688;-80
2023/06/27 12:16:03;;;;;;;3.93;1.33;;;23.00;93.00;;;;;;4990011;28;20430;-80
2023/06/27 12:18:31;;;;;;;5.20;1.40;;;23.10;92.90;;;;;;4989740;28;20457;-80
2023/06/27 12:21:01;;;;;;;6.80;1.50;;;23.20;92.50;;;;;;4985587;28;20477;-79
2023/06/27 12:23:30;;;;;;;4.67;1.30;;;23.30;92.30;;;;;;4989568;28;20422;-79
2023/06/27 12:25:59;;;;;;;3.70;1.27;;;23.30;91.90;;;;;;4987209;28;20449;-80
2023/06/27 12:28:27;;;;;;;4.63;0.90;;;23.30;91.90;;;;;;4986549;28;21018;-80
2023/06/27 12:30:55;;;;;;;4.47;1.40;;;23.30;91.90;;;;;;4986662;28;20489;-80
2023/06/27 12:33:25;;;;;;;3.93;1.00;;;23.20;91.80;;;;;;4988350;28;20442;-80
2023/06/27 12:35:53;;;;;;;5.20;1.30;;;23.20;91.60;;;;;;4989915;28;20438;-80
2023/06/27 12:38:23;;;;;;;6.33;1.60;;;23.10;91.50;;;;;;4987544;28;20481;-80
2023/06/27 12:40:51;;;;;;;4.83;1.20;;;23.10;91.40;;;;;;4988876;28;20456;-79
2023/06/27 12:43:19;;;;;;;3.97;1.10;;;23.10;91.40;;;;;;4988515;28;20508;-79
2023/06/27 12:46:01;;;;;;;5.97;1.20;;;23.20;91.50;;;;;;4985150;28;20454;-80
2023/06/27 12:48:30;;;;;;;3.90;1.00;;;23.30;91.40;;;;;;4991466;28;20806;-79
2023/06/27 12:50:58;;;;;;;7.17;1.30;;;23.30;91.60;;;;;;4987502;28;20826;-80
2023/06/27 12:53:27;;;;;;;4.67;1.30;;;23.40;91.70;;;;;;4986166;28;20540;-79
2023/06/27 12:55:56;;;;;;;3.77;1.27;;;23.50;91.60;;;;;;4994104;28;20481;-79
2023/06/27 12:58:24;;;;;;;3.70;1.10;;;23.50;91.40;;;;;;4993983;28;20457;-79
2023/06/27 13:00:54;;;;;;;4.33;1.20;;;23.60;91.40;;;;;;4977696;28;20986;-78